sensor_id;sensor_type;location;lat;lon;timestamp;P1;durP1;ratioP1;P2;durP2;ratioP2
45007;SDS011;30743;52.008;5.644;2022-08-07T00:01:10;2.80;;;1.23;;
45007;SDS011;30743;52.008;5.644;2022-08-07T00:03:35;2.03;;;1.20;;
45007;SDS011;30743;52.008;5.644;2022-08-07T00:06:01;1.75;;;1.10;;
45007;SDS011;30743;52.008;5.644;2022-08-07T00:08:27;1.70;;;1.10;;
45007;SDS011;30743;52.008;5.644;2022-08-07T00:10:53;3.22;;;1.05;;
45007;SDS011;30743;52.008;5.644;2022-08-07T00:13:19;2.35;;;1.27;;
45007;SDS011;30743;52.008;5.644;2022-08-07T00:15:45;2.28;;;1.48;;
45007;SDS011;30743;52.008;5.644;2022-08-07T00:18:13;3.28;;;1.88;;
45007;SDS011;30743;52.008;5.644;2022-08-07T00:20:39;2.28;;;1.60;;
45007;SDS011;30743;52.008;5.644;2022-08-07T00:23:05;3.85;;;2.05;;
45007;SDS011;30743;52.008;5.644;2022-08-07T00:25:31;3.35;;;1.85;;
45007;SDS011;30743;52.008;5.644;2022-08-07T00:27:56;3.42;;;1.88;;
45007;SDS011;30743;52.008;5.644;2022-08-07T00:30:22;2.42;;;1.77;;
45007;SDS011;30743;52.008;5.644;2022-08-07T00:32:49;10.82;;;2.05;;
45007;SDS011;30743;52.008;5.644;2022-08-07T00:35:18;4.43;;;2.00;;
45007;SDS011;30743;52.008;5.644;2022-08-07T00:40:10;6.03;;;1.92;;
45007;SDS011;30743;52.008;5.644;2022-08-07T00:42:37;3.03;;;1.90;;
45007;SDS011;30743;52.008;5.644;2022-08-07T00:45:03;4.03;;;1.70;;
45007;SDS011;30743;52.008;5.644;2022-08-07T00:47:29;4.57;;;2.10;;
45007;SDS011;30743;52.008;5.644;2022-08-07T00:49:55;3.88;;;1.73;;
45007;SDS011;30743;52.008;5.644;2022-08-07T00:52:20;4.70;;;2.05;;
45007;SDS011;30743;52.008;5.644;2022-08-07T00:54:46;3.17;;;2.15;;
45007;SDS011;30743;52.008;5.644;2022-08-07T00:57:12;2.78;;;2.10;;
45007;SDS011;30743;52.008;5.644;2022-08-07T00:59:39;3.88;;;2.05;;
45007;SDS011;30743;52.008;5.644;2022-08-07T01:02:06;5.35;;;1.90;;
45007;SDS011;30743;52.008;5.644;2022-08-07T01:04:32;4.60;;;2.17;;
45007;SDS011;30743;52.008;5.644;2022-08-07T01:06:57;4.47;;;1.67;;
45007;SDS011;30743;52.008;5.644;2022-08-07T01:09:23;5.47;;;2.20;;
45007;SDS011;30743;52.008;5.644;2022-08-07T01:11:50;5.95;;;2.10;;
45007;SDS011;30743;52.008;5.644;2022-08-07T01:14:16;3.53;;;2.20;;
45007;SDS011;30743;52.008;5.644;2022-08-07T01:16:43;4.45;;;2.20;;
45007;SDS011;30743;52.008;5.644;2022-08-07T01:19:09;3.15;;;2.42;;
45007;SDS011;30743;52.008;5.644;2022-08-07T01:21:35;4.40;;;2.40;;
45007;SDS011;30743;52.008;5.644;2022-08-07T01:24:02;2.45;;;1.92;;
45007;SDS011;30743;52.008;5.644;2022-08-07T01:26:28;3.13;;;2.00;;
45007;SDS011;30743;52.008;5.644;2022-08-07T01:28:54;4.60;;;2.28;;
45007;SDS011;30743;52.008;5.644;2022-08-07T01:31:20;5.90;;;2.17;;
45007;SDS011;30743;52.008;5.644;2022-08-07T01:33:51;2.88;;;2.35;;
45007;SDS011;30743;52.008;5.644;2022-08-07T01:36:17;4.85;;;2.42;;
45007;SDS011;30743;52.008;5.644;2022-08-07T01:38:43;3.20;;;1.80;;
45007;SDS011;30743;52.008;5.644;2022-08-07T01:41:09;9.75;;;2.58;;
45007;SDS011;30743;52.008;5.644;2022-08-07T01:43:35;5.70;;;2.75;;
45007;SDS011;30743;52.008;5.644;2022-08-07T01:46:01;7.03;;;2.85;;
45007;SDS011;30743;52.008;5.644;2022-08-07T01:48:27;3.55;;;2.13;;
45007;SDS011;30743;52.008;5.644;2022-08-07T01:51:03;3.20;;;2.00;;
45007;SDS011;30743;52.008;5.644;2022-08-07T01:53:32;3.00;;;1.98;;
45007;SDS011;30743;52.008;5.644;2022-08-07T01:56:01;2.95;;;2.30;;
45007;SDS011;30743;52.008;5.644;2022-08-07T01:58:34;3.60;;;2.33;;
45007;SDS011;30743;52.008;5.644;2022-08-07T02:01:10;7.05;;;1.88;;
45007;SDS011;30743;52.008;5.644;2022-08-07T02:03:40;5.75;;;2.20;;
45007;SDS011;30743;52.008;5.644;2022-08-07T02:06:09;5.80;;;2.38;;
45007;SDS011;30743;52.008;5.644;2022-08-07T02:08:39;3.00;;;2.40;;
45007;SDS011;30743;52.008;5.644;2022-08-07T02:11:08;6.60;;;2.33;;
45007;SDS011;30743;52.008;5.644;2022-08-07T02:13:35;4.60;;;2.47;;
45007;SDS011;30743;52.008;5.644;2022-08-07T02:16:02;7.18;;;2.78;;
45007;SDS011;30743;52.008;5.644;2022-08-07T02:18:30;3.13;;;2.40;;
45007;SDS011;30743;52.008;5.644;2022-08-07T02:20:59;2.78;;;2.15;;
45007;SDS011;30743;52.008;5.644;2022-08-07T02:23:27;6.93;;;2.55;;
45007;SDS011;30743;52.008;5.644;2022-08-07T02:25:54;4.88;;;2.78;;
45007;SDS011;30743;52.008;5.644;2022-08-07T02:28:22;6.05;;;3.00;;
45007;SDS011;30743;52.008;5.644;2022-08-07T02:30:52;3.53;;;2.63;;
45007;SDS011;30743;52.008;5.644;2022-08-07T02:33:20;5.60;;;2.70;;
45007;SDS011;30743;52.008;5.644;2022-08-07T02:35:48;3.08;;;2.78;;
45007;SDS011;30743;52.008;5.644;2022-08-07T02:38:15;4.80;;;2.85;;
45007;SDS011;30743;52.008;5.644;2022-08-07T02:40:42;3.38;;;2.63;;
45007;SDS011;30743;52.008;5.644;2022-08-07T02:43:08;4.35;;;2.78;;
45007;SDS011;30743;52.008;5.644;2022-08-07T02:45:36;3.00;;;2.50;;
45007;SDS011;30743;52.008;5.644;2022-08-07T02:48:04;3.60;;;3.05;;
45007;SDS011;30743;52.008;5.644;2022-08-07T02:50:30;3.60;;;2.17;;
45007;SDS011;30743;52.008;5.644;2022-08-07T02:53:00;5.18;;;2.40;;
45007;SDS011;30743;52.008;5.644;2022-08-07T02:55:52;3.08;;;2.53;;
45007;SDS011;30743;52.008;5.644;2022-08-07T02:58:19;3.33;;;2.53;;
45007;SDS011;30743;52.008;5.644;2022-08-07T03:00:50;4.53;;;2.97;;
45007;SDS011;30743;52.008;5.644;2022-08-07T03:03:18;5.28;;;2.83;;
45007;SDS011;30743;52.008;5.644;2022-08-07T03:05:45;4.63;;;3.00;;
45007;SDS011;30743;52.008;5.644;2022-08-07T03:08:13;4.60;;;2.53;;
45007;SDS011;30743;52.008;5.644;2022-08-07T03:10:40;3.38;;;2.20;;
45007;SDS011;30743;52.008;5.644;2022-08-07T03:13:06;4.07;;;2.05;;
45007;SDS011;30743;52.008;5.644;2022-08-07T03:15:32;7.50;;;2.53;;
45007;SDS011;30743;52.008;5.644;2022-08-07T03:17:58;6.63;;;2.50;;
45007;SDS011;30743;52.008;5.644;2022-08-07T03:20:25;4.72;;;2.35;;
45007;SDS011;30743;52.008;5.644;2022-08-07T03:22:51;15.20;;;3.10;;
45007;SDS011;30743;52.008;5.644;2022-08-07T03:25:17;6.22;;;3.63;;
45007;SDS011;30743;52.008;5.644;2022-08-07T03:27:45;6.68;;;3.13;;
45007;SDS011;30743;52.008;5.644;2022-08-07T03:30:12;4.15;;;2.88;;
45007;SDS011;30743;52.008;5.644;2022-08-07T03:32:39;4.15;;;2.80;;
45007;SDS011;30743;52.008;5.644;2022-08-07T03:35:08;3.08;;;2.50;;
45007;SDS011;30743;52.008;5.644;2022-08-07T03:37:41;3.53;;;2.40;;
45007;SDS011;30743;52.008;5.644;2022-08-07T03:40:08;5.20;;;2.97;;
45007;SDS011;30743;52.008;5.644;2022-08-07T03:42:34;6.93;;;2.90;;
45007;SDS011;30743;52.008;5.644;2022-08-07T03:45:00;5.32;;;3.20;;
45007;SDS011;30743;52.008;5.644;2022-08-07T03:47:27;6.15;;;3.50;;
45007;SDS011;30743;52.008;5.644;2022-08-07T03:49:54;3.50;;;2.90;;
45007;SDS011;30743;52.008;5.644;2022-08-07T03:52:21;3.25;;;2.30;;
45007;SDS011;30743;52.008;5.644;2022-08-07T03:54:50;5.18;;;3.05;;
45007;SDS011;30743;52.008;5.644;2022-08-07T03:57:15;4.15;;;2.60;;
45007;SDS011;30743;52.008;5.644;2022-08-07T03:59:41;7.85;;;3.42;;
45007;SDS011;30743;52.008;5.644;2022-08-07T04:02:08;5.68;;;3.08;;
45007;SDS011;30743;52.008;5.644;2022-08-07T04:04:34;5.22;;;2.90;;
45007;SDS011;30743;52.008;5.644;2022-08-07T04:07:00;7.68;;;3.17;;
45007;SDS011;30743;52.008;5.644;2022-08-07T04:09:26;7.95;;;3.50;;
45007;SDS011;30743;52.008;5.644;2022-08-07T04:11:53;10.05;;;3.67;;
45007;SDS011;30743;52.008;5.644;2022-08-07T04:14:20;6.95;;;3.45;;
45007;SDS011;30743;52.008;5.644;2022-08-07T04:16:46;5.75;;;3.80;;
45007;SDS011;30743;52.008;5.644;2022-08-07T04:19:13;7.75;;;3.67;;
45007;SDS011;30743;52.008;5.644;2022-08-07T04:21:38;8.68;;;3.95;;
45007;SDS011;30743;52.008;5.644;2022-08-07T04:24:04;9.48;;;3.83;;
45007;SDS011;30743;52.008;5.644;2022-08-07T04:26:34;10.55;;;4.55;;
45007;SDS011;30743;52.008;5.644;2022-08-07T04:29:00;14.80;;;4.60;;
45007;SDS011;30743;52.008;5.644;2022-08-07T04:31:26;14.80;;;4.43;;
45007;SDS011;30743;52.008;5.644;2022-08-07T04:33:52;14.60;;;5.10;;
45007;SDS011;30743;52.008;5.644;2022-08-07T04:36:18;11.65;;;4.10;;
45007;SDS011;30743;52.008;5.644;2022-08-07T04:38:44;10.15;;;3.75;;
45007;SDS011;30743;52.008;5.644;2022-08-07T04:41:09;8.77;;;4.20;;
45007;SDS011;30743;52.008;5.644;2022-08-07T04:43:35;12.95;;;4.18;;
45007;SDS011;30743;52.008;5.644;2022-08-07T04:46:06;7.57;;;4.03;;
45007;SDS011;30743;52.008;5.644;2022-08-07T04:54:17;16.55;;;4.55;;
45007;SDS011;30743;52.008;5.644;2022-08-07T04:59:52;12.90;;;3.63;;
45007;SDS011;30743;52.008;5.644;2022-08-07T05:02:27;9.90;;;3.80;;
45007;SDS011;30743;52.008;5.644;2022-08-07T05:04:59;6.68;;;3.47;;
45007;SDS011;30743;52.008;5.644;2022-08-07T05:08:13;6.30;;;3.90;;
45007;SDS011;30743;52.008;5.644;2022-08-07T05:11:04;7.45;;;4.22;;
45007;SDS011;30743;52.008;5.644;2022-08-07T05:13:42;8.18;;;4.10;;
45007;SDS011;30743;52.008;5.644;2022-08-07T05:16:13;6.10;;;4.50;;
45007;SDS011;30743;52.008;5.644;2022-08-07T05:18:46;8.80;;;4.45;;
45007;SDS011;30743;52.008;5.644;2022-08-07T05:21:17;9.07;;;4.13;;
45007;SDS011;30743;52.008;5.644;2022-08-07T05:23:48;6.68;;;4.70;;
45007;SDS011;30743;52.008;5.644;2022-08-07T05:26:25;7.90;;;4.57;;
45007;SDS011;30743;52.008;5.644;2022-08-07T05:28:53;9.13;;;4.20;;
45007;SDS011;30743;52.008;5.644;2022-08-07T05:31:23;9.52;;;4.70;;
45007;SDS011;30743;52.008;5.644;2022-08-07T05:33:51;5.15;;;4.30;;
45007;SDS011;30743;52.008;5.644;2022-08-07T05:36:18;14.30;;;4.95;;
45007;SDS011;30743;52.008;5.644;2022-08-07T05:38:45;9.70;;;4.75;;
45007;SDS011;30743;52.008;5.644;2022-08-07T05:41:11;7.55;;;4.63;;
45007;SDS011;30743;52.008;5.644;2022-08-07T05:43:38;9.00;;;4.60;;
45007;SDS011;30743;52.008;5.644;2022-08-07T05:46:06;6.47;;;4.47;;
45007;SDS011;30743;52.008;5.644;2022-08-07T05:48:31;9.70;;;4.70;;
45007;SDS011;30743;52.008;5.644;2022-08-07T05:50:59;10.88;;;4.38;;
45007;SDS011;30743;52.008;5.644;2022-08-07T05:53:25;10.60;;;4.55;;
45007;SDS011;30743;52.008;5.644;2022-08-07T05:55:52;6.53;;;4.80;;
45007;SDS011;30743;52.008;5.644;2022-08-07T05:58:20;9.05;;;4.88;;
45007;SDS011;30743;52.008;5.644;2022-08-07T06:00:47;9.07;;;4.90;;
45007;SDS011;30743;52.008;5.644;2022-08-07T06:03:15;9.38;;;4.82;;
45007;SDS011;30743;52.008;5.644;2022-08-07T06:05:44;9.93;;;4.55;;
45007;SDS011;30743;52.008;5.644;2022-08-07T06:08:12;7.82;;;4.80;;
45007;SDS011;30743;52.008;5.644;2022-08-07T06:10:39;10.85;;;4.97;;
45007;SDS011;30743;52.008;5.644;2022-08-07T06:13:05;12.88;;;4.90;;
45007;SDS011;30743;52.008;5.644;2022-08-07T06:15:31;6.70;;;4.45;;
45007;SDS011;30743;52.008;5.644;2022-08-07T06:17:59;10.50;;;4.78;;
45007;SDS011;30743;52.008;5.644;2022-08-07T06:20:29;7.60;;;4.75;;
45007;SDS011;30743;52.008;5.644;2022-08-07T06:22:55;6.45;;;4.43;;
45007;SDS011;30743;52.008;5.644;2022-08-07T06:25:21;6.63;;;4.72;;
45007;SDS011;30743;52.008;5.644;2022-08-07T06:27:47;8.95;;;4.65;;
45007;SDS011;30743;52.008;5.644;2022-08-07T06:30:13;7.13;;;4.60;;
45007;SDS011;30743;52.008;5.644;2022-08-07T06:32:38;9.48;;;4.70;;
45007;SDS011;30743;52.008;5.644;2022-08-07T06:35:04;6.88;;;4.03;;
45007;SDS011;30743;52.008;5.644;2022-08-07T06:37:30;7.63;;;4.97;;
45007;SDS011;30743;52.008;5.644;2022-08-07T06:39:55;6.15;;;4.35;;
45007;SDS011;30743;52.008;5.644;2022-08-07T06:42:23;7.50;;;4.38;;
45007;SDS011;30743;52.008;5.644;2022-08-07T06:45:00;19.85;;;5.20;;
45007;SDS011;30743;52.008;5.644;2022-08-07T06:47:27;8.43;;;4.50;;
45007;SDS011;30743;52.008;5.644;2022-08-07T06:49:52;6.88;;;4.53;;
45007;SDS011;30743;52.008;5.644;2022-08-07T06:52:18;6.40;;;4.50;;
45007;SDS011;30743;52.008;5.644;2022-08-07T06:54:46;6.80;;;4.18;;
45007;SDS011;30743;52.008;5.644;2022-08-07T06:57:14;8.25;;;4.40;;
45007;SDS011;30743;52.008;5.644;2022-08-07T06:59:41;5.97;;;3.35;;
45007;SDS011;30743;52.008;5.644;2022-08-07T07:02:12;5.80;;;4.22;;
45007;SDS011;30743;52.008;5.644;2022-08-07T07:04:42;7.03;;;4.20;;
45007;SDS011;30743;52.008;5.644;2022-08-07T07:07:08;5.80;;;3.67;;
45007;SDS011;30743;52.008;5.644;2022-08-07T07:09:34;6.85;;;4.20;;
45007;SDS011;30743;52.008;5.644;2022-08-07T07:14:55;6.18;;;4.05;;
45007;SDS011;30743;52.008;5.644;2022-08-07T07:17:27;5.82;;;4.03;;
45007;SDS011;30743;52.008;5.644;2022-08-07T07:19:59;4.22;;;3.22;;
45007;SDS011;30743;52.008;5.644;2022-08-07T07:22:30;4.97;;;3.33;;
45007;SDS011;30743;52.008;5.644;2022-08-07T07:24:57;4.22;;;3.33;;
45007;SDS011;30743;52.008;5.644;2022-08-07T07:27:26;3.72;;;2.90;;
45007;SDS011;30743;52.008;5.644;2022-08-07T07:32:22;4.78;;;2.70;;
45007;SDS011;30743;52.008;5.644;2022-08-07T07:34:50;4.55;;;3.15;;
45007;SDS011;30743;52.008;5.644;2022-08-07T07:37:19;4.50;;;2.92;;
45007;SDS011;30743;52.008;5.644;2022-08-07T07:39:47;5.35;;;2.80;;
45007;SDS011;30743;52.008;5.644;2022-08-07T07:42:13;5.50;;;3.05;;
45007;SDS011;30743;52.008;5.644;2022-08-07T07:44:42;5.35;;;3.08;;
45007;SDS011;30743;52.008;5.644;2022-08-07T07:47:10;7.95;;;3.55;;
45007;SDS011;30743;52.008;5.644;2022-08-07T07:49:38;4.43;;;3.08;;
45007;SDS011;30743;52.008;5.644;2022-08-07T07:52:04;5.35;;;3.25;;
45007;SDS011;30743;52.008;5.644;2022-08-07T07:54:31;4.90;;;2.72;;
45007;SDS011;30743;52.008;5.644;2022-08-07T07:56:58;4.55;;;2.83;;
45007;SDS011;30743;52.008;5.644;2022-08-07T07:59:25;3.45;;;2.60;;
45007;SDS011;30743;52.008;5.644;2022-08-07T08:01:53;5.47;;;2.50;;
45007;SDS011;30743;52.008;5.644;2022-08-07T08:04:20;5.35;;;2.63;;
45007;SDS011;30743;52.008;5.644;2022-08-07T08:06:47;3.90;;;2.70;;
45007;SDS011;30743;52.008;5.644;2022-08-07T08:09:15;4.88;;;2.95;;
45007;SDS011;30743;52.008;5.644;2022-08-07T08:11:42;4.30;;;2.70;;
45007;SDS011;30743;52.008;5.644;2022-08-07T08:14:09;4.43;;;2.75;;
45007;SDS011;30743;52.008;5.644;2022-08-07T08:16:38;3.45;;;2.35;;
45007;SDS011;30743;52.008;5.644;2022-08-07T08:19:07;4.28;;;2.67;;
45007;SDS011;30743;52.008;5.644;2022-08-07T08:21:36;5.68;;;2.90;;
45007;SDS011;30743;52.008;5.644;2022-08-07T08:24:21;5.13;;;2.50;;
45007;SDS011;30743;52.008;5.644;2022-08-07T08:27:06;4.10;;;2.75;;
45007;SDS011;30743;52.008;5.644;2022-08-07T08:29:42;4.55;;;2.55;;
45007;SDS011;30743;52.008;5.644;2022-08-07T08:32:14;5.50;;;2.60;;
45007;SDS011;30743;52.008;5.644;2022-08-07T08:34:44;4.35;;;3.10;;
45007;SDS011;30743;52.008;5.644;2022-08-07T08:37:12;4.45;;;2.90;;
45007;SDS011;30743;52.008;5.644;2022-08-07T08:39:41;8.27;;;3.30;;
45007;SDS011;30743;52.008;5.644;2022-08-07T08:45:17;4.32;;;2.80;;
45007;SDS011;30743;52.008;5.644;2022-08-07T08:48:05;3.60;;;2.45;;
45007;SDS011;30743;52.008;5.644;2022-08-07T08:50:45;4.00;;;2.75;;
45007;SDS011;30743;52.008;5.644;2022-08-07T08:53:21;4.43;;;2.50;;
45007;SDS011;30743;52.008;5.644;2022-08-07T08:56:26;4.63;;;2.70;;
45007;SDS011;30743;52.008;5.644;2022-08-07T09:01:28;3.38;;;2.30;;
45007;SDS011;30743;52.008;5.644;2022-08-07T09:04:06;4.40;;;2.55;;
45007;SDS011;30743;52.008;5.644;2022-08-07T09:12:29;4.18;;;2.20;;
45007;SDS011;30743;52.008;5.644;2022-08-07T09:15:00;3.28;;;2.13;;
45007;SDS011;30743;52.008;5.644;2022-08-07T09:17:36;4.15;;;1.92;;
45007;SDS011;30743;52.008;5.644;2022-08-07T09:20:30;2.30;;;1.90;;
45007;SDS011;30743;52.008;5.644;2022-08-07T09:23:20;4.53;;;2.20;;
45007;SDS011;30743;52.008;5.644;2022-08-07T09:25:59;3.10;;;1.90;;
45007;SDS011;30743;52.008;5.644;2022-08-07T09:28:46;5.15;;;1.63;;
45007;SDS011;30743;52.008;5.644;2022-08-07T09:34:07;4.10;;;1.80;;
45007;SDS011;30743;52.008;5.644;2022-08-07T09:37:03;4.53;;;1.92;;
45007;SDS011;30743;52.008;5.644;2022-08-07T09:39:37;2.30;;;1.60;;
45007;SDS011;30743;52.008;5.644;2022-08-07T09:42:25;3.65;;;1.67;;
45007;SDS011;30743;52.008;5.644;2022-08-07T09:47:36;2.70;;;1.88;;
45007;SDS011;30743;52.008;5.644;2022-08-07T09:55:25;5.57;;;2.08;;
45007;SDS011;30743;52.008;5.644;2022-08-07T10:06:45;4.40;;;1.75;;
45007;SDS011;30743;52.008;5.644;2022-08-07T10:12:38;1.90;;;1.40;;
45007;SDS011;30743;52.008;5.644;2022-08-07T10:17:52;2.22;;;1.60;;
45007;SDS011;30743;52.008;5.644;2022-08-07T10:20:51;3.13;;;2.17;;
45007;SDS011;30743;52.008;5.644;2022-08-07T10:29:44;2.72;;;1.10;;
45007;SDS011;30743;52.008;5.644;2022-08-07T10:38:07;2.83;;;1.73;;
45007;SDS011;30743;52.008;5.644;2022-08-07T10:40:54;2.55;;;1.50;;
45007;SDS011;30743;52.008;5.644;2022-08-07T10:43:39;2.70;;;1.65;;
45007;SDS011;30743;52.008;5.644;2022-08-07T10:46:14;4.45;;;1.70;;
45007;SDS011;30743;52.008;5.644;2022-08-07T10:48:48;2.20;;;1.70;;
45007;SDS011;30743;52.008;5.644;2022-08-07T10:51:33;2.70;;;1.63;;
45007;SDS011;30743;52.008;5.644;2022-08-07T10:59:46;2.75;;;1.73;;
45007;SDS011;30743;52.008;5.644;2022-08-07T11:05:29;2.67;;;1.58;;
45007;SDS011;30743;52.008;5.644;2022-08-07T11:14:03;2.25;;;1.42;;
45007;SDS011;30743;52.008;5.644;2022-08-07T11:27:47;2.33;;;1.55;;
45007;SDS011;30743;52.008;5.644;2022-08-07T11:30:15;1.30;;;1.17;;
45007;SDS011;30743;52.008;5.644;2022-08-07T11:35:29;5.28;;;1.30;;
45007;SDS011;30743;52.008;5.644;2022-08-07T11:38:08;2.27;;;1.20;;
45007;SDS011;30743;52.008;5.644;2022-08-07T11:41:00;2.15;;;1.42;;
45007;SDS011;30743;52.008;5.644;2022-08-07T11:43:37;1.90;;;1.10;;
45007;SDS011;30743;52.008;5.644;2022-08-07T11:46:22;1.65;;;1.17;;
45007;SDS011;30743;52.008;5.644;2022-08-07T11:49:16;1.27;;;1.00;;
45007;SDS011;30743;52.008;5.644;2022-08-07T11:57:31;1.60;;;0.90;;
45007;SDS011;30743;52.008;5.644;2022-08-07T12:00:10;1.45;;;0.98;;
45007;SDS011;30743;52.008;5.644;2022-08-07T12:02:46;1.38;;;1.05;;
45007;SDS011;30743;52.008;5.644;2022-08-07T12:13:52;1.15;;;0.85;;
45007;SDS011;30743;52.008;5.644;2022-08-07T12:16:30;1.55;;;0.82;;
45007;SDS011;30743;52.008;5.644;2022-08-07T12:22:01;4.25;;;1.08;;
45007;SDS011;30743;52.008;5.644;2022-08-07T12:24:37;1.63;;;1.00;;
45007;SDS011;30743;52.008;5.644;2022-08-07T12:27:48;1.15;;;0.90;;
45007;SDS011;30743;52.008;5.644;2022-08-07T12:30:18;1.17;;;0.80;;
45007;SDS011;30743;52.008;5.644;2022-08-07T12:35:22;0.98;;;0.70;;
45007;SDS011;30743;52.008;5.644;2022-08-07T12:37:49;1.63;;;0.63;;
45007;SDS011;30743;52.008;5.644;2022-08-07T12:40:18;1.80;;;1.23;;
45007;SDS011;30743;52.008;5.644;2022-08-07T12:42:46;1.20;;;0.60;;
45007;SDS011;30743;52.008;5.644;2022-08-07T12:45:16;2.47;;;0.98;;
45007;SDS011;30743;52.008;5.644;2022-08-07T12:48:03;1.35;;;0.80;;
45007;SDS011;30743;52.008;5.644;2022-08-07T12:51:03;1.23;;;0.68;;
45007;SDS011;30743;52.008;5.644;2022-08-07T12:58:52;1.33;;;0.80;;
45007;SDS011;30743;52.008;5.644;2022-08-07T13:09:33;2.90;;;1.00;;
45007;SDS011;30743;52.008;5.644;2022-08-07T13:20:22;1.92;;;0.80;;
45007;SDS011;30743;52.008;5.644;2022-08-07T13:23:08;2.10;;;1.00;;
45007;SDS011;30743;52.008;5.644;2022-08-07T13:25:54;2.58;;;0.88;;
45007;SDS011;30743;52.008;5.644;2022-08-07T13:28:31;4.30;;;0.90;;
45007;SDS011;30743;52.008;5.644;2022-08-07T13:31:06;2.65;;;0.80;;
45007;SDS011;30743;52.008;5.644;2022-08-07T13:36:20;1.65;;;0.80;;
45007;SDS011;30743;52.008;5.644;2022-08-07T13:39:07;6.38;;;1.35;;
45007;SDS011;30743;52.008;5.644;2022-08-07T13:41:50;1.42;;;0.55;;
45007;SDS011;30743;52.008;5.644;2022-08-07T13:44:22;2.67;;;0.90;;
45007;SDS011;30743;52.008;5.644;2022-08-07T13:46:51;2.28;;;0.73;;
45007;SDS011;30743;52.008;5.644;2022-08-07T13:49:20;2.63;;;0.70;;
45007;SDS011;30743;52.008;5.644;2022-08-07T13:51:49;5.47;;;0.70;;
45007;SDS011;30743;52.008;5.644;2022-08-07T13:54:16;0.90;;;0.60;;
45007;SDS011;30743;52.008;5.644;2022-08-07T13:56:44;2.50;;;0.90;;
45007;SDS011;30743;52.008;5.644;2022-08-07T13:59:12;1.08;;;0.70;;
45007;SDS011;30743;52.008;5.644;2022-08-07T14:01:50;1.30;;;0.82;;
45007;SDS011;30743;52.008;5.644;2022-08-07T14:04:19;1.45;;;0.60;;
45007;SDS011;30743;52.008;5.644;2022-08-07T14:06:48;0.95;;;0.70;;
45007;SDS011;30743;52.008;5.644;2022-08-07T14:09:19;2.08;;;0.70;;
45007;SDS011;30743;52.008;5.644;2022-08-07T14:11:55;2.13;;;0.60;;
45007;SDS011;30743;52.008;5.644;2022-08-07T14:14:30;1.45;;;0.70;;
45007;SDS011;30743;52.008;5.644;2022-08-07T14:19:49;4.50;;;0.57;;
45007;SDS011;30743;52.008;5.644;2022-08-07T14:22:29;3.22;;;0.60;;
45007;SDS011;30743;52.008;5.644;2022-08-07T14:24:58;2.13;;;0.60;;
45007;SDS011;30743;52.008;5.644;2022-08-07T14:27:34;1.35;;;0.68;;
45007;SDS011;30743;52.008;5.644;2022-08-07T14:30:04;2.25;;;0.80;;
45007;SDS011;30743;52.008;5.644;2022-08-07T14:32:36;2.53;;;1.00;;
45007;SDS011;30743;52.008;5.644;2022-08-07T14:38:09;1.52;;;0.98;;
45007;SDS011;30743;52.008;5.644;2022-08-07T14:40:36;2.10;;;1.23;;
45007;SDS011;30743;52.008;5.644;2022-08-07T14:43:05;2.63;;;1.50;;
45007;SDS011;30743;52.008;5.644;2022-08-07T14:45:39;2.13;;;1.35;;
45007;SDS011;30743;52.008;5.644;2022-08-07T14:48:16;2.00;;;1.55;;
45007;SDS011;30743;52.008;5.644;2022-08-07T14:50:46;6.03;;;1.60;;
45007;SDS011;30743;52.008;5.644;2022-08-07T14:53:14;2.13;;;1.30;;
45007;SDS011;30743;52.008;5.644;2022-08-07T14:55:41;3.55;;;1.48;;
45007;SDS011;30743;52.008;5.644;2022-08-07T14:58:08;4.20;;;1.38;;
45007;SDS011;30743;52.008;5.644;2022-08-07T15:00:35;1.40;;;1.15;;
45007;SDS011;30743;52.008;5.644;2022-08-07T15:03:06;1.90;;;1.17;;
45007;SDS011;30743;52.008;5.644;2022-08-07T15:05:33;2.30;;;1.48;;
45007;SDS011;30743;52.008;5.644;2022-08-07T15:08:02;2.42;;;1.65;;
45007;SDS011;30743;52.008;5.644;2022-08-07T15:10:29;1.98;;;1.38;;
45007;SDS011;30743;52.008;5.644;2022-08-07T15:13:04;1.58;;;1.13;;
45007;SDS011;30743;52.008;5.644;2022-08-07T15:15:36;1.85;;;1.00;;
45007;SDS011;30743;52.008;5.644;2022-08-07T15:18:06;1.90;;;1.02;;
45007;SDS011;30743;52.008;5.644;2022-08-07T15:20:35;2.13;;;1.20;;
45007;SDS011;30743;52.008;5.644;2022-08-07T15:23:10;2.50;;;1.20;;
45007;SDS011;30743;52.008;5.644;2022-08-07T15:25:39;1.95;;;1.02;;
45007;SDS011;30743;52.008;5.644;2022-08-07T15:28:11;1.05;;;0.80;;
45007;SDS011;30743;52.008;5.644;2022-08-07T15:30:40;2.28;;;0.98;;
45007;SDS011;30743;52.008;5.644;2022-08-07T15:33:15;0.85;;;0.80;;
45007;SDS011;30743;52.008;5.644;2022-08-07T15:35:43;2.30;;;0.73;;
45007;SDS011;30743;52.008;5.644;2022-08-07T15:38:14;2.13;;;0.85;;
45007;SDS011;30743;52.008;5.644;2022-08-07T15:40:40;3.38;;;1.10;;
45007;SDS011;30743;52.008;5.644;2022-08-07T15:45:37;2.05;;;1.10;;
45007;SDS011;30743;52.008;5.644;2022-08-07T15:50:41;2.70;;;1.00;;
45007;SDS011;30743;52.008;5.644;2022-08-07T15:53:10;1.60;;;0.70;;
45007;SDS011;30743;52.008;5.644;2022-08-07T15:55:39;1.40;;;0.73;;
45007;SDS011;30743;52.008;5.644;2022-08-07T15:58:07;3.03;;;0.70;;
45007;SDS011;30743;52.008;5.644;2022-08-07T16:00:36;1.48;;;0.52;;
45007;SDS011;30743;52.008;5.644;2022-08-07T16:03:25;4.28;;;1.10;;
45007;SDS011;30743;52.008;5.644;2022-08-07T16:05:51;1.60;;;0.60;;
45007;SDS011;30743;52.008;5.644;2022-08-07T16:08:20;2.63;;;0.75;;
45007;SDS011;30743;52.008;5.644;2022-08-07T16:13:26;1.38;;;0.70;;
45007;SDS011;30743;52.008;5.644;2022-08-07T16:25:01;1.98;;;0.82;;
45007;SDS011;30743;52.008;5.644;2022-08-07T16:27:50;1.38;;;0.70;;
45007;SDS011;30743;52.008;5.644;2022-08-07T16:30:36;1.23;;;0.50;;
45007;SDS011;30743;52.008;5.644;2022-08-07T16:33:30;1.50;;;0.70;;
45007;SDS011;30743;52.008;5.644;2022-08-07T16:36:15;1.20;;;0.80;;
45007;SDS011;30743;52.008;5.644;2022-08-07T16:38:58;1.05;;;0.75;;
45007;SDS011;30743;52.008;5.644;2022-08-07T16:41:57;1.33;;;0.70;;
45007;SDS011;30743;52.008;5.644;2022-08-07T16:50:45;1.90;;;0.95;;
45007;SDS011;30743;52.008;5.644;2022-08-07T16:56:29;1.92;;;1.23;;
45007;SDS011;30743;52.008;5.644;2022-08-07T16:59:18;2.35;;;0.95;;
45007;SDS011;30743;52.008;5.644;2022-08-07T17:05:08;2.35;;;0.95;;
45007;SDS011;30743;52.008;5.644;2022-08-07T17:07:54;1.45;;;0.98;;
45007;SDS011;30743;52.008;5.644;2022-08-07T17:18:28;9.27;;;1.20;;
45007;SDS011;30743;52.008;5.644;2022-08-07T17:21:01;1.65;;;1.10;;
45007;SDS011;30743;52.008;5.644;2022-08-07T17:26:43;2.35;;;1.20;;
45007;SDS011;30743;52.008;5.644;2022-08-07T17:29:27;2.93;;;1.30;;
45007;SDS011;30743;52.008;5.644;2022-08-07T17:32:02;4.93;;;1.70;;
45007;SDS011;30743;52.008;5.644;2022-08-07T17:34:41;4.13;;;1.55;;
45007;SDS011;30743;52.008;5.644;2022-08-07T17:37:16;1.60;;;1.30;;
45007;SDS011;30743;52.008;5.644;2022-08-07T17:39:56;2.83;;;1.52;;
45007;SDS011;30743;52.008;5.644;2022-08-07T17:42:36;2.00;;;1.10;;
45007;SDS011;30743;52.008;5.644;2022-08-07T17:45:10;2.47;;;1.20;;
45007;SDS011;30743;52.008;5.644;2022-08-07T17:52:59;1.75;;;1.23;;
45007;SDS011;30743;52.008;5.644;2022-08-07T17:55:37;3.65;;;1.58;;
45007;SDS011;30743;52.008;5.644;2022-08-07T17:58:13;4.97;;;1.40;;
45007;SDS011;30743;52.008;5.644;2022-08-07T18:00:45;2.00;;;1.38;;
45007;SDS011;30743;52.008;5.644;2022-08-07T18:03:22;2.30;;;1.30;;
45007;SDS011;30743;52.008;5.644;2022-08-07T18:08:33;1.70;;;1.38;;
45007;SDS011;30743;52.008;5.644;2022-08-07T18:11:09;3.45;;;1.90;;
45007;SDS011;30743;52.008;5.644;2022-08-07T18:13:54;4.43;;;1.80;;
45007;SDS011;30743;52.008;5.644;2022-08-07T18:18:50;7.38;;;1.60;;
45007;SDS011;30743;52.008;5.644;2022-08-07T18:21:27;3.75;;;1.70;;
45007;SDS011;30743;52.008;5.644;2022-08-07T18:24:02;3.10;;;1.38;;
45007;SDS011;30743;52.008;5.644;2022-08-07T18:29:33;2.80;;;1.55;;
45007;SDS011;30743;52.008;5.644;2022-08-07T18:32:07;2.92;;;1.67;;